Time;durP1;ratioP1;P1;durP2;ratioP2;P2;SDS_P1;SDS_P2;PMS_P1;PMS_P2;Temp;Humidity;BMP_temperature;BMP_pressure;BME280_temperature;BME280_humidity;BME280_pressure;Samples;Min_cycle;Max_cycle;Signal;HPM_P1;HPM_P2
2022/05/31 00:00:41;;;;;;;18.20;13.87;;;18.60;92.90;;;;;;5024484;28;20638;-84
2022/05/31 00:03:14;;;;;;;20.27;13.90;;;18.60;92.90;;;;;;5006980;28;20211;-85
2022/05/31 00:06:39;;;;;;;18.07;13.40;;;18.60;93.00;;;;;;5024645;28;20220;-84
2022/05/31 00:10:14;;;;;;;21.90;14.80;;;18.60;93.00;;;;;;5030890;28;20527;-84
2022/05/31 00:17:07;;;;;;;19.33;14.10;;;18.70;93.20;;;;;;5012623;28;20356;-84
2022/05/31 00:27:30;;;;;;;20.47;15.03;;;18.70;93.40;;;;;;5011249;28;20227;-84
2022/05/31 00:30:01;;;;;;;17.83;15.30;;;18.70;93.40;;;;;;5006434;28;20208;-84
2022/05/31 00:33:18;;;;;;;25.23;15.40;;;18.80;93.50;;;;;;5007426;28;20237;-84
2022/05/31 00:39:21;;;;;;;18.10;14.53;;;18.80;93.50;;;;;;4992363;28;20298;-83
2022/05/31 00:42:29;;;;;;;25.10;17.47;;;18.80;93.50;;;;;;5022253;28;20289;-84
2022/05/31 00:49:12;;;;;;;29.17;16.77;;;18.90;93.60;;;;;;4970626;28;20210;-84
2022/05/31 00:52:51;;;;;;;22.97;16.37;;;18.90;93.50;;;;;;4940246;29;20730;-84
2022/05/31 00:55:58;;;;;;;22.00;16.87;;;19.00;93.50;;;;;;4940145;29;20224;-84
2022/05/31 00:59:09;;;;;;;22.33;17.33;;;18.90;93.50;;;;;;4925398;29;20219;-83
2022/05/31 01:02:32;;;;;;;29.37;17.57;;;19.00;93.50;;;;;;4898396;29;20210;-84
2022/05/31 01:05:41;;;;;;;25.50;17.77;;;19.00;93.50;;;;;;4901726;29;20220;-84
2022/05/31 01:08:54;;;;;;;27.97;18.47;;;19.00;93.50;;;;;;4949444;29;20223;-84
2022/05/31 01:16:45;;;;;;;;;;;;;;;;;;;;;
2022/05/31 01:20:23;;;;;;;22.43;18.17;;;19.10;93.50;;;;;;4939881;29;20208;-84
2022/05/31 01:28:42;;;;;;;22.97;15.77;;;19.10;93.40;;;;;;5006765;28;20195;-84
2022/05/31 01:31:57;;;;;;;23.60;16.63;;;19.10;93.50;;;;;;5013828;28;20217;-84
2022/05/31 01:35:23;;;;;;;26.43;16.60;;;19.00;93.60;;;;;;4978663;28;20223;-84
2022/05/31 01:38:30;;;;;;;20.90;16.00;;;19.00;93.70;;;;;;5001749;28;20588;-84
2022/05/31 01:48:45;;;;;;;20.70;16.43;;;19.00;93.70;;;;;;5027094;28;20218;-84
2022/05/31 01:52:03;;;;;;;21.27;16.97;;;18.90;93.80;;;;;;5034564;28;20232;-85
2022/05/31 01:55:41;;;;;;;24.87;17.23;;;18.90;93.90;;;;;;4922592;29;20208;-84
2022/05/31 01:58:29;;;;;;;23.47;16.70;;;18.90;93.80;;;;;;4947773;28;20287;-83
2022/05/31 02:01:03;;;;;;;22.83;18.23;;;18.90;93.90;;;;;;5013811;28;20216;-83
2022/05/31 02:03:37;;;;;;;27.97;17.53;;;18.90;93.90;;;;;;5019393;28;20220;-84
2022/05/31 02:06:39;;;;;;;32.63;17.63;;;18.80;93.90;;;;;;5033583;28;20233;-85
2022/05/31 02:09:11;;;;;;;23.97;17.87;;;18.80;94.00;;;;;;5037242;28;20210;-84
2022/05/31 02:11:51;;;;;;;26.10;18.33;;;18.80;94.00;;;;;;5017523;28;20337;-84
2022/05/31 02:14:27;;;;;;;24.50;17.37;;;18.70;94.10;;;;;;5007749;28;20200;-84
2022/05/31 02:17:00;;;;;;;26.40;16.93;;;18.70;94.10;;;;;;5014921;28;20225;-84
2022/05/31 02:20:02;;;;;;;26.17;17.37;;;18.70;94.20;;;;;;5032378;28;20216;-84
2022/05/31 02:22:34;;;;;;;26.73;16.73;;;18.70;94.20;;;;;;5016446;28;20212;-84
2022/05/31 02:25:04;;;;;;;28.80;18.93;;;18.60;94.20;;;;;;5039068;28;20228;-84
2022/05/31 02:27:34;;;;;;;23.87;16.47;;;18.70;94.30;;;;;;5025672;28;20212;-84
2022/05/31 02:30:06;;;;;;;23.27;17.53;;;18.70;94.30;;;;;;5025825;28;20647;-84
2022/05/31 02:33:01;;;;;;;25.53;17.33;;;18.70;94.30;;;;;;5026130;28;20239;-85
2022/05/31 02:35:40;;;;;;;22.43;17.37;;;18.70;94.30;;;;;;5017109;28;20214;-84
2022/05/31 02:42:28;;;;;;;25.57;19.03;;;18.70;94.30;;;;;;5015620;28;20210;-85
2022/05/31 02:45:32;;;;;;;22.93;18.73;;;18.60;94.30;;;;;;4988674;28;20235;-85
2022/05/31 02:48:10;;;;;;;;;;;;;;;;;;;;;
2022/05/31 02:51:07;;;;;;;38.17;19.23;;;18.60;94.40;;;;;;5039521;28;20721;-84
2022/05/31 02:54:40;;;;;;;29.67;19.20;;;18.60;94.40;;;;;;5030860;28;20215;-85
2022/05/31 02:57:55;;;;;;;30.13;19.30;;;18.60;94.40;;;;;;5030105;28;20206;-85
2022/05/31 03:01:40;;;;;;;;;;;;;;;;;;;;;
2022/05/31 03:05:30;;;;;;;27.47;18.37;;;18.60;94.60;;;;;;5041087;28;20667;-84
2022/05/31 03:08:30;;;;;;;26.77;18.67;;;18.60;94.60;;;;;;5039176;28;20260;-84
2022/05/31 03:11:32;;;;;;;26.40;18.43;;;18.60;94.60;;;;;;5036652;28;20205;-84
2022/05/31 03:14:22;;;;;;;29.47;18.47;;;18.60;94.60;;;;;;5020550;28;20214;-84
2022/05/31 03:17:14;;;;;;;23.10;18.77;;;18.70;94.50;;;;;;5031670;28;20251;-84
2022/05/31 03:19:54;;;;;;;25.70;18.57;;;18.70;94.50;;;;;;5019062;28;20202;-85
2022/05/31 03:22:39;;;;;;;26.43;18.30;;;18.70;94.40;;;;;;5019797;28;20207;-85
2022/05/31 03:25:44;;;;;;;22.47;18.33;;;18.70;94.40;;;;;;5008272;28;20216;-84
2022/05/31 03:28:20;;;;;;;32.07;18.00;;;18.80;94.40;;;;;;5020897;28;20312;-85
2022/05/31 03:30:48;;;;;;;25.00;18.13;;;18.70;94.30;;;;;;5004641;28;20215;-84
2022/05/31 03:33:16;;;;;;;26.17;19.80;;;18.80;94.40;;;;;;5021352;28;20223;-85
2022/05/31 03:35:45;;;;;;;28.67;19.27;;;18.70;94.30;;;;;;5041057;28;20590;-85
2022/05/31 03:38:22;;;;;;;27.30;18.60;;;18.70;94.30;;;;;;5026987;28;20296;-85
2022/05/31 03:40:56;;;;;;;29.17;20.53;;;18.70;94.40;;;;;;5022483;28;20264;-86
2022/05/31 03:43:37;;;;;;;29.90;21.23;;;18.70;94.50;;;;;;5010093;28;20217;-84
2022/05/31 03:46:24;;;;;;;32.73;20.07;;;18.70;94.60;;;;;;5024585;28;20220;-85
2022/05/31 03:49:11;;;;;;;30.97;19.80;;;18.70;94.70;;;;;;5027180;28;20209;-84
2022/05/31 03:51:43;;;;;;;27.03;18.77;;;18.70;94.80;;;;;;4999434;28;20700;-86
2022/05/31 03:54:21;;;;;;;24.33;18.67;;;18.70;94.90;;;;;;5016400;28;20585;-85
2022/05/31 03:57:12;;;;;;;25.80;19.27;;;18.70;94.90;;;;;;5027157;28;20679;-84
2022/05/31 03:59:40;;;;;;;26.87;20.23;;;18.70;94.80;;;;;;5026802;28;20210;-84
2022/05/31 04:02:07;;;;;;;25.47;17.77;;;18.80;94.90;;;;;;5007822;28;20201;-84
2022/05/31 04:04:37;;;;;;;27.93;18.43;;;18.80;94.80;;;;;;5003151;28;20239;-84
2022/05/31 04:07:05;;;;;;;23.17;17.50;;;18.80;94.80;;;;;;5015178;28;20211;-84
2022/05/31 04:09:33;;;;;;;26.00;19.33;;;18.90;94.80;;;;;;5022923;28;20218;-84
2022/05/31 04:12:03;;;;;;;26.20;17.67;;;18.90;94.70;;;;;;4999837;28;20332;-85
2022/05/31 04:14:49;;;;;;;22.73;18.33;;;18.90;94.60;;;;;;5038795;28;20212;-84
2022/05/31 04:17:17;;;;;;;33.93;19.83;;;19.00;94.60;;;;;;5025017;28;20265;-84
2022/05/31 04:19:45;;;;;;;32.00;18.83;;;19.00;94.60;;;;;;5009002;28;20205;-85
2022/05/31 04:22:12;;;;;;;23.07;17.77;;;19.10;94.60;;;;;;5025628;28;20215;-85
2022/05/31 04:24:39;;;;;;;28.77;17.73;;;19.10;94.50;;;;;;5026357;28;20224;-84
2022/05/31 04:27:25;;;;;;;20.27;17.30;;;19.10;94.50;;;;;;5028135;28;20228;-85
2022/05/31 04:30:11;;;;;;;25.37;17.93;;;19.10;94.40;;;;;;5014560;28;20235;-84
2022/05/31 04:33:05;;;;;;;23.73;16.70;;;19.20;94.40;;;;;;5003857;28;20248;-84
2022/05/31 04:35:34;;;;;;;23.07;16.63;;;19.20;94.30;;;;;;5016642;28;20205;-85
2022/05/31 04:38:02;;;;;;;24.33;16.53;;;19.20;94.30;;;;;;5020474;28;20209;-84
2022/05/31 04:40:47;;;;;;;23.93;15.67;;;19.20;94.30;;;;;;5020088;28;20218;-85
2022/05/31 04:43:52;;;;;;;17.60;14.70;;;19.30;94.40;;;;;;4952128;29;20307;-84
2022/05/31 04:46:31;;;;;;;19.90;14.20;;;19.30;94.30;;;;;;5008319;28;20214;-85
2022/05/31 04:49:07;;;;;;;21.50;13.90;;;19.30;94.20;;;;;;5022324;28;20217;-84
2022/05/31 04:51:35;;;;;;;21.87;14.80;;;19.40;94.10;;;;;;5004281;28;20240;-84
2022/05/31 04:54:05;;;;;;;21.43;13.50;;;19.40;94.10;;;;;;5003120;28;20229;-84
2022/05/31 04:56:46;;;;;;;21.07;13.60;;;19.30;94.00;;;;;;5021120;28;20638;-84
2022/05/31 04:59:14;;;;;;;18.83;13.57;;;19.40;94.10;;;;;;5022551;28;20230;-84
2022/05/31 05:01:41;;;;;;;17.30;14.20;;;19.50;94.10;;;;;;5005061;28;20242;-84
2022/05/31 05:04:18;;;;;;;13.83;12.47;;;19.50;94.00;;;;;;4998436;28;20255;-84
2022/05/31 05:06:52;;;;;;;16.37;13.73;;;19.50;94.00;;;;;;5023670;28;20205;-84
2022/05/31 05:09:21;;;;;;;15.57;12.57;;;19.50;94.00;;;;;;5023656;28;20237;-84
2022/05/31 05:12:16;;;;;;;16.93;13.43;;;19.60;93.90;;;;;;5022059;28;20259;-85
2022/05/31 05:14:47;;;;;;;21.63;12.33;;;19.70;93.90;;;;;;5023897;28;20193;-84
2022/05/31 05:17:17;;;;;;;14.93;12.00;;;19.70;93.80;;;;;;5013683;28;20244;-84
2022/05/31 05:19:47;;;;;;;16.17;12.30;;;19.80;93.80;;;;;;5024455;28;20205;-85
2022/05/31 05:22:15;;;;;;;14.07;12.57;;;19.90;93.70;;;;;;5025018;28;20203;-84
2022/05/31 05:24:43;;;;;;;15.83;12.33;;;19.90;93.60;;;;;;5035113;28;20283;-84
2022/05/31 05:27:28;;;;;;;17.03;11.67;;;20.00;93.60;;;;;;5022798;28;20341;-84
2022/05/31 05:32:46;;;;;;;10.97;9.87;;;20.20;93.30;;;;;;5025638;28;20251;-83
2022/05/31 05:35:27;;;;;;;11.73;10.30;;;20.20;93.00;;;;;;5019132;28;20232;-84
2022/05/31 05:38:07;;;;;;;11.93;10.57;;;20.30;92.70;;;;;;5015912;28;20306;-84
2022/05/31 05:40:55;;;;;;;11.13;9.67;;;20.30;92.70;;;;;;5016421;28;20205;-82
2022/05/31 05:43:30;;;;;;;13.20;10.77;;;20.40;92.40;;;;;;5034839;28;20218;-84
2022/05/31 05:46:01;;;;;;;12.30;9.63;;;20.40;92.50;;;;;;5003380;28;20191;-84
2022/05/31 05:48:29;;;;;;;12.30;11.03;;;20.50;92.50;;;;;;5004323;28;20653;-83
2022/05/31 05:50:57;;;;;;;10.80;9.70;;;20.60;92.20;;;;;;5024421;28;20666;-83
2022/05/31 05:53:47;;;;;;;13.97;9.53;;;20.60;91.70;;;;;;5025720;28;20315;-84
2022/05/31 05:56:43;;;;;;;13.13;10.20;;;20.60;91.80;;;;;;4999718;28;20230;-84
2022/05/31 05:59:39;;;;;;;10.57;9.57;;;20.70;91.90;;;;;;5000984;28;20223;-84
2022/05/31 06:02:30;;;;;;;12.00;8.80;;;20.80;91.90;;;;;;5030320;28;20275;-83
2022/05/31 06:05:46;;;;;;;18.33;9.57;;;20.90;91.90;;;;;;5022339;28;20373;-82
2022/05/31 06:08:28;;;;;;;11.47;9.10;;;20.90;91.70;;;;;;5027649;28;20224;-83
2022/05/31 06:11:14;;;;;;;10.63;8.60;;;21.00;91.70;;;;;;5022600;28;20206;-83
2022/05/31 06:14:08;;;;;;;7.90;7.20;;;21.10;91.60;;;;;;5024558;28;20686;-84
2022/05/31 06:16:41;;;;;;;10.97;7.60;;;21.10;91.30;;;;;;5016129;28;20202;-83
2022/05/31 06:19:15;;;;;;;8.10;7.30;;;21.10;90.90;;;;;;5024422;28;20248;-82
2022/05/31 06:21:44;;;;;;;8.67;7.77;;;21.00;90.30;;;;;;5012432;28;20209;-83
2022/05/31 06:24:25;;;;;;;9.47;7.40;;;20.90;90.50;;;;;;5023319;28;20662;-83
2022/05/31 06:26:55;;;;;;;9.37;8.47;;;20.90;90.70;;;;;;5021742;28;20654;-83
2022/05/31 06:29:23;;;;;;;114.53;101.80;;;20.90;90.80;;;;;;5019148;28;20214;-84
2022/05/31 06:31:50;;;;;;;9.03;8.13;;;20.90;90.80;;;;;;5015481;28;20264;-83
2022/05/31 06:34:33;;;;;;;9.27;7.70;;;20.90;90.80;;;;;;5040972;28;20223;-81
2022/05/31 06:37:19;;;;;;;9.93;8.50;;;21.00;90.50;;;;;;5040827;28;20296;-83
2022/05/31 06:39:47;;;;;;;35.77;23.37;;;21.00;90.30;;;;;;5018182;28;20199;-83
2022/05/31 06:42:31;;;;;;;35.17;23.37;;;21.10;90.20;;;;;;5027850;28;20635;-84
2022/05/31 06:45:21;;;;;;;47.20;24.17;;;21.20;90.40;;;;;;5010546;28;20220;-83
2022/05/31 06:48:17;;;;;;;11.90;8.87;;;21.30;90.40;;;;;;4981890;28;20228;-82
2022/05/31 06:51:07;;;;;;;11.07;7.80;;;21.50;90.10;;;;;;5017142;28;20242;-83
2022/05/31 06:56:48;;;;;;;12.03;8.60;;;21.60;89.30;;;;;;5042596;28;20206;-83
2022/05/31 06:59:29;;;;;;;18.57;8.33;;;21.70;88.80;;;;;;5017675;28;20211;-82
2022/05/31 07:02:04;;;;;;;16.73;9.97;;;21.70;88.30;;;;;;5007713;28;20208;-82
2022/05/31 07:04:35;;;;;;;25.57;15.23;;;21.70;89.00;;;;;;5045244;28;20212;-82
2022/05/31 07:07:03;;;;;;;10.13;7.30;;;21.80;88.60;;;;;;5047069;28;20207;-83
2022/05/31 07:09:49;;;;;;;53.60;34.33;;;21.90;87.80;;;;;;5026645;28;20630;-84
2022/05/31 07:12:22;;;;;;;9.30;6.67;;;22.00;88.60;;;;;;5021889;28;20239;-84
2022/05/31 07:15:09;;;;;;;9.40;6.87;;;22.20;88.60;;;;;;5013463;28;20230;-83
2022/05/31 07:18:04;;;;;;;7.93;6.00;;;22.40;87.90;;;;;;5004894;28;20744;-83
2022/05/31 07:20:34;;;;;;;8.13;5.93;;;22.70;86.70;;;;;;5029225;28;20211;-84
2022/05/31 07:23:02;;;;;;;10.73;6.13;;;22.90;85.60;;;;;;5027638;28;20214;-83
2022/05/31 07:25:35;;;;;;;6.80;5.90;;;22.90;83.00;;;;;;5020844;28;20226;-83
2022/05/31 07:28:06;;;;;;;7.30;6.07;;;22.80;83.00;;;;;;5023995;28;20289;-82
2022/05/31 07:30:38;;;;;;;11.20;6.33;;;22.70;83.40;;;;;;5022779;28;20204;-82
2022/05/31 07:33:14;;;;;;;6.97;6.27;;;22.70;84.20;;;;;;5018631;28;20219;-83
2022/05/31 07:36:08;;;;;;;7.23;5.57;;;22.60;83.10;;;;;;5023613;28;20203;-83
2022/05/31 07:38:59;;;;;;;7.20;6.50;;;22.50;83.80;;;;;;5023628;28;20200;-84
2022/05/31 07:41:28;;;;;;;7.63;6.10;;;22.40;84.20;;;;;;5020969;28;20283;-83
2022/05/31 07:43:57;;;;;;;8.77;6.67;;;22.40;84.60;;;;;;5050944;28;20207;-82
2022/05/31 07:46:27;;;;;;;13.23;7.13;;;22.40;85.00;;;;;;5025097;28;20268;-82
2022/05/31 07:48:59;;;;;;;11.63;6.73;;;22.40;84.40;;;;;;5000256;28;20208;-83
2022/05/31 07:51:41;;;;;;;9.57;6.40;;;22.50;85.10;;;;;;5044092;28;20623;-83
2022/05/31 07:54:34;;;;;;;8.47;6.27;;;22.50;85.40;;;;;;5005218;28;20238;-84
2022/05/31 08:00:25;;;;;;;6.57;5.97;;;22.80;85.50;;;;;;5032527;28;20214;-83
2022/05/31 08:02:55;;;;;;;11.43;6.57;;;22.90;84.80;;;;;;5017662;28;20219;-83
2022/05/31 08:05:22;;;;;;;6.60;5.67;;;22.90;84.30;;;;;;5015521;28;20207;-84
2022/05/31 08:07:50;;;;;;;7.27;6.00;;;22.90;84.50;;;;;;5036810;28;20208;-83
2022/05/31 08:10:33;;;;;;;11.30;6.17;;;22.90;84.70;;;;;;5024134;28;20211;-84
2022/05/31 08:13:00;;;;;;;6.93;6.23;;;23.00;84.80;;;;;;5010038;28;20676;-83
2022/05/31 08:15:27;;;;;;;10.50;6.70;;;23.10;84.40;;;;;;5010246;28;20225;-82
2022/05/31 08:17:57;;;;;;;11.13;5.90;;;23.10;83.20;;;;;;5026897;28;20211;-82
2022/05/31 08:20:24;;;;;;;9.37;6.50;;;23.10;83.10;;;;;;5012388;28;20266;-83
2022/05/31 08:22:52;;;;;;;7.30;5.80;;;23.10;83.10;;;;;;5007504;28;20210;-83
2022/05/31 08:25:19;;;;;;;8.40;6.80;;;23.10;82.80;;;;;;5019893;28;20271;-83
2022/05/31 08:27:47;;;;;;;10.77;6.33;;;23.10;83.00;;;;;;5007889;28;20302;-83
2022/05/31 08:30:14;;;;;;;12.03;6.70;;;23.10;82.40;;;;;;5006377;28;20637;-84
2022/05/31 08:32:42;;;;;;;9.90;6.63;;;23.10;81.90;;;;;;5014740;28;20639;-83
2022/05/31 08:35:10;;;;;;;8.83;6.57;;;23.00;82.40;;;;;;5019789;28;20222;-84
2022/05/31 08:37:38;;;;;;;9.93;7.23;;;23.00;82.90;;;;;;5024875;28;20206;-84
2022/05/31 08:40:06;;;;;;;11.60;7.20;;;23.10;82.30;;;;;;5003490;28;20210;-83
2022/05/31 08:42:41;;;;;;;7.60;6.57;;;23.10;82.40;;;;;;5045170;28;20627;-83
2022/05/31 08:45:15;;;;;;;9.33;6.77;;;23.10;82.70;;;;;;5005752;28;20208;-83
2022/05/31 08:47:46;;;;;;;10.57;6.77;;;23.30;82.80;;;;;;5019329;28;20216;-84
2022/05/31 08:53:26;;;;;;;9.10;6.87;;;23.50;81.20;;;;;;5019514;28;20215;-84
2022/05/31 08:58:51;;;;;;;7.40;6.50;;;23.80;81.60;;;;;;5000667;28;20201;-84
2022/05/31 09:01:27;;;;;;;10.10;6.70;;;24.00;80.30;;;;;;4996318;28;20206;-84
2022/05/31 09:04:01;;;;;;;8.67;7.27;;;24.10;79.40;;;;;;5000877;28;20208;-83
2022/05/31 09:06:39;;;;;;;7.27;6.57;;;24.20;79.00;;;;;;5009476;28;20636;-84
2022/05/31 09:09:39;;;;;;;8.43;7.07;;;24.20;79.00;;;;;;5016683;28;20267;-83
2022/05/31 09:12:36;;;;;;;7.70;7.00;;;24.30;78.50;;;;;;5000686;28;20267;-83
2022/05/31 09:15:11;;;;;;;9.53;7.10;;;24.20;77.00;;;;;;5002303;28;20220;-83
2022/05/31 09:17:53;;;;;;;7.43;6.73;;;24.10;78.20;;;;;;5003096;28;20565;-84
2022/05/31 09:20:38;;;;;;;10.87;6.53;;;24.10;78.10;;;;;;5002098;28;20262;-83
2022/05/31 09:23:06;;;;;;;12.60;7.33;;;24.20;78.90;;;;;;5012565;28;20204;-83
2022/05/31 09:25:39;;;;;;;8.90;6.93;;;24.20;78.80;;;;;;4986480;28;20200;-84
2022/05/31 09:28:27;;;;;;;9.17;6.70;;;24.40;78.10;;;;;;5016398;28;20238;-83
2022/05/31 09:30:57;;;;;;;6.67;5.87;;;24.50;77.10;;;;;;5011212;28;20207;-83
2022/05/31 09:33:33;;;;;;;6.13;5.53;;;24.50;76.80;;;;;;4991197;28;20526;-83
2022/05/31 09:36:18;;;;;;;8.43;7.07;;;24.50;75.70;;;;;;4999168;28;20208;-82
2022/05/31 09:38:57;;;;;;;11.27;7.43;;;24.50;76.10;;;;;;5010750;28;20208;-84
2022/05/31 09:41:35;;;;;;;13.53;7.47;;;24.40;75.80;;;;;;5010606;28;20200;-83
2022/05/31 09:44:24;;;;;;;11.57;8.60;;;24.30;76.90;;;;;;4993841;28;20218;-80
2022/05/31 09:47:11;;;;;;;8.60;7.70;;;24.20;77.40;;;;;;4997398;28;20303;-83
2022/05/31 09:49:41;;;;;;;9.70;7.67;;;24.10;77.20;;;;;;5009351;28;20223;-83
2022/05/31 09:52:14;;;;;;;9.07;8.20;;;24.00;77.40;;;;;;4999683;28;20211;-84
2022/05/31 09:58:21;;;;;;;10.10;7.67;;;23.80;78.50;;;;;;5011638;28;20206;-81
2022/05/31 10:01:21;;;;;;;7.70;6.90;;;23.80;78.90;;;;;;5006234;28;20309;-83
2022/05/31 10:04:08;;;;;;;7.50;6.70;;;23.90;78.90;;;;;;4998647;28;20212;-83
2022/05/31 10:06:59;;;;;;;7.23;6.57;;;24.30;78.50;;;;;;5000778;28;20210;-84
2022/05/31 10:09:39;;;;;;;10.37;6.90;;;24.70;78.50;;;;;;4998451;28;20602;-85
2022/05/31 10:12:15;;;;;;;8.10;6.87;;;25.20;75.30;;;;;;4989480;28;20254;-85
2022/05/31 10:14:54;;;;;;;9.07;6.27;;;25.40;73.70;;;;;;5012739;28;20220;-85
2022/05/31 10:17:41;;;;;;;12.77;7.23;;;25.60;74.30;;;;;;5011736;28;20214;-81
2022/05/31 10:20:14;;;;;;;7.97;6.70;;;25.90;72.10;;;;;;5008318;28;20207;-84
2022/05/31 10:23:11;;;;;;;8.27;7.00;;;26.10;70.70;;;;;;5001515;28;20641;-83
2022/05/31 10:25:59;;;;;;;8.90;7.40;;;26.10;68.80;;;;;;4994184;28;20549;-85
2022/05/31 10:28:57;;;;;;;9.87;7.03;;;25.90;71.00;;;;;;5002130;28;20561;-83
2022/05/31 10:32:31;;;;;;;10.13;7.73;;;25.90;72.60;;;;;;4956170;29;20274;-85
2022/05/31 10:35:21;;;;;;;8.07;7.13;;;26.20;71.10;;;;;;4925049;29;20690;-85
2022/05/31 10:38:09;;;;;;;7.97;7.17;;;26.10;68.70;;;;;;4984718;28;20212;-82
2022/05/31 10:40:39;;;;;;;8.40;6.60;;;26.00;69.90;;;;;;5008336;28;20202;-83
2022/05/31 10:43:15;;;;;;;8.73;6.17;;;26.10;69.70;;;;;;5002201;28;20728;-84
2022/05/31 10:45:43;;;;;;;8.00;6.93;;;26.20;68.70;;;;;;5006936;28;20207;-84
2022/05/31 10:48:11;;;;;;;10.40;7.07;;;26.10;68.90;;;;;;5018028;28;20207;-84
2022/05/31 10:51:03;;;;;;;7.53;6.17;;;26.20;70.10;;;;;;5001920;28;20212;-84
2022/05/31 10:53:50;;;;;;;8.60;7.10;;;26.40;69.20;;;;;;5006839;28;20192;-84
2022/05/31 10:56:32;;;;;;;8.03;6.97;;;26.40;68.20;;;;;;5002160;28;20784;-83
2022/05/31 10:59:05;;;;;;;9.47;6.67;;;26.20;67.80;;;;;;5004362;28;20211;-84
2022/05/31 11:02:09;;;;;;;10.00;7.33;;;26.00;68.30;;;;;;5003775;28;20190;-84
2022/05/31 11:05:07;;;;;;;9.07;8.13;;;25.90;69.40;;;;;;5016766;28;20210;-84
2022/05/31 11:11:28;;;;;;;11.27;8.07;;;25.70;69.00;;;;;;5003886;28;20299;-84
2022/05/31 11:14:13;;;;;;;9.10;8.20;;;25.70;70.00;;;;;;5014190;28;20274;-84
2022/05/31 11:16:52;;;;;;;15.50;9.03;;;25.70;69.40;;;;;;5014475;28;20201;-84
2022/05/31 11:19:38;;;;;;;10.10;9.10;;;25.90;70.50;;;;;;5000016;28;20210;-84
2022/05/31 11:22:36;;;;;;;10.27;9.27;;;26.10;71.20;;;;;;5009142;28;20206;-83
2022/05/31 11:25:24;;;;;;;9.47;6.03;;;26.40;70.90;;;;;;5006012;28;20632;-83
2022/05/31 11:28:18;;;;;;;7.10;6.40;;;26.90;69.40;;;;;;4999373;28;20210;-83
2022/05/31 11:30:54;;;;;;;11.97;6.77;;;27.30;68.30;;;;;;5003135;28;20218;-86
2022/05/31 11:33:43;;;;;;;8.07;6.63;;;27.70;68.10;;;;;;5015561;28;20301;-82
2022/05/31 11:36:39;;;;;;;7.50;6.37;;;28.00;65.40;;;;;;4996307;28;20235;-84
2022/05/31 11:39:38;;;;;;;9.53;6.50;;;28.20;63.00;;;;;;4999138;28;20231;-82
2022/05/31 11:42:20;;;;;;;10.60;6.17;;;28.20;62.80;;;;;;4969982;28;20646;-84
2022/05/31 11:44:59;;;;;;;14.57;6.83;;;28.10;62.50;;;;;;5014051;28;20266;-84
2022/05/31 11:47:48;;;;;;;7.00;5.60;;;28.00;63.60;;;;;;5006180;28;20269;-86
2022/05/31 11:50:31;;;;;;;8.93;6.50;;;27.90;63.20;;;;;;5004100;28;20239;-86
2022/05/31 11:53:16;;;;;;;7.73;5.40;;;27.90;62.70;;;;;;5016650;28;20294;-84
2022/05/31 11:55:57;;;;;;;8.17;5.87;;;28.00;61.60;;;;;;5006146;28;20220;-83
2022/05/31 11:58:54;;;;;;;6.97;5.97;;;27.90;63.50;;;;;;5021533;28;20249;-85
2022/05/31 12:01:39;;;;;;;8.37;5.57;;;27.90;63.80;;;;;;5018006;28;20224;-85
2022/05/31 12:04:27;;;;;;;7.10;5.93;;;28.00;64.50;;;;;;5022294;28;20515;-85
2022/05/31 12:07:04;;;;;;;13.60;6.87;;;28.00;64.50;;;;;;5021342;28;20207;-85
2022/05/31 12:09:48;;;;;;;11.80;5.73;;;28.20;62.70;;;;;;4997961;28;20257;-83
2022/05/31 12:12:20;;;;;;;7.27;6.53;;;28.20;63.60;;;;;;5000599;28;20309;-86
2022/05/31 12:14:53;;;;;;;13.50;6.00;;;28.30;64.30;;;;;;5003186;28;20223;-85
2022/05/31 12:17:28;;;;;;;7.67;5.57;;;28.40;63.60;;;;;;4985720;28;20211;-85
2022/05/31 12:20:19;;;;;;;8.57;6.63;;;28.40;61.90;;;;;;4982590;28;20189;-85
2022/05/31 12:23:02;;;;;;;8.33;5.00;;;28.40;60.10;;;;;;4992335;28;20292;-83
2022/05/31 12:25:52;;;;;;;6.17;5.47;;;28.20;61.60;;;;;;5011447;28;20208;-85
2022/05/31 12:28:23;;;;;;;8.03;5.10;;;28.20;62.30;;;;;;5013830;28;20589;-85
2022/05/31 12:31:10;;;;;;;8.70;5.10;;;28.10;62.20;;;;;;4998023;28;20541;-85
2022/05/31 12:33:43;;;;;;;7.87;5.03;;;28.10;62.50;;;;;;5022171;28;20207;-85
2022/05/31 12:36:15;;;;;;;12.50;5.50;;;28.10;63.30;;;;;;5003022;28;20314;-85
2022/05/31 12:38:54;;;;;;;6.97;5.03;;;28.10;63.30;;;;;;5003888;28;20199;-84
2022/05/31 12:41:40;;;;;;;9.33;5.03;;;28.20;63.40;;;;;;4994956;28;20203;-86
2022/05/31 12:44:12;;;;;;;8.37;5.30;;;28.30;62.00;;;;;;5016514;28;20261;-82
2022/05/31 12:46:45;;;;;;;5.97;4.60;;;28.30;61.80;;;;;;5011227;28;20283;-85
2022/05/31 12:49:28;;;;;;;9.40;5.10;;;28.40;62.10;;;;;;5020634;28;20203;-86
2022/05/31 12:52:12;;;;;;;9.20;5.87;;;28.40;61.90;;;;;;4994102;28;20203;-83
2022/05/31 12:54:54;;;;;;;7.33;5.20;;;28.50;61.70;;;;;;4978843;28;20227;-80
2022/05/31 12:58:26;;;;;;;9.70;5.97;;;28.60;61.60;;;;;;5003234;28;20266;-85
2022/05/31 13:00:28;;;;;;;11.33;5.53;;;28.50;60.70;;;;;;5008351;28;20212;-84
2022/05/31 13:02:57;;;;;;;7.37;5.17;;;28.20;60.10;;;;;;5018956;28;20199;-85
2022/05/31 13:05:37;;;;;;;10.73;6.07;;;28.00;61.70;;;;;;5000166;28;20212;-84
2022/05/31 13:08:18;;;;;;;7.33;5.70;;;27.80;62.10;;;;;;4994441;28;20283;-84
2022/05/31 13:19:38;;;;;;;5.63;4.17;;;27.90;62.40;;;;;;4991997;28;20545;-84
2022/05/31 13:22:19;;;;;;;8.83;5.60;;;28.30;61.90;;;;;;5010385;28;20207;-83
2022/05/31 13:24:49;;;;;;;15.30;8.33;;;28.50;59.90;;;;;;5001459;28;20345;-87
2022/05/31 13:27:25;;;;;;;11.33;5.97;;;28.50;59.30;;;;;;5018648;28;20294;-84
2022/05/31 13:30:11;;;;;;;20.43;9.70;;;28.50;60.10;;;;;;4975427;28;20231;-86
2022/05/31 13:32:39;;;;;;;8.73;6.60;;;28.40;60.80;;;;;;5003530;28;20227;-85
2022/05/31 13:35:24;;;;;;;10.07;6.17;;;28.40;61.60;;;;;;5003768;28;20215;-85
2022/05/31 13:37:55;;;;;;;7.83;5.57;;;28.30;61.90;;;;;;5001796;28;20208;-85
2022/05/31 13:40:28;;;;;;;5.87;5.27;;;28.10;61.90;;;;;;5015321;28;20211;-85
2022/05/31 13:42:56;;;;;;;16.83;7.77;;;28.00;61.00;;;;;;5000370;28;20293;-84
2022/05/31 13:45:28;;;;;;;12.67;8.27;;;27.90;63.00;;;;;;5004461;28;20215;-83
2022/05/31 13:48:17;;;;;;;12.43;9.10;;;27.80;61.80;;;;;;5004271;28;20298;-84
2022/05/31 13:51:00;;;;;;;13.37;9.00;;;27.80;62.90;;;;;;5020470;28;20552;-85
2022/05/31 13:53:42;;;;;;;8.63;6.40;;;27.70;64.10;;;;;;5023129;28;20623;-86
2022/05/31 13:56:18;;;;;;;11.53;4.33;;;27.70;64.50;;;;;;5016396;28;20297;-84
2022/05/31 13:58:50;;;;;;;9.87;3.73;;;27.70;64.60;;;;;;4999019;28;20210;-85
2022/05/31 14:01:20;;;;;;;11.03;4.03;;;27.60;63.40;;;;;;4978811;28;20203;-85
2022/05/31 14:03:49;;;;;;;5.07;3.50;;;27.60;63.00;;;;;;5022573;28;20216;-82
2022/05/31 14:06:28;;;;;;;9.37;3.90;;;27.50;62.60;;;;;;5012466;28;20207;-86
2022/05/31 14:08:57;;;;;;;7.90;3.80;;;27.50;61.50;;;;;;5014728;28;20206;-85
2022/05/31 14:11:54;;;;;;;7.90;3.80;;;27.60;60.20;;;;;;5010880;28;20208;-84
2022/05/31 14:14:27;;;;;;;8.10;4.10;;;27.70;60.40;;;;;;4991273;28;20263;-86
2022/05/31 14:16:57;;;;;;;6.30;4.00;;;27.90;60.10;;;;;;5003578;28;20245;-85
2022/05/31 14:19:29;;;;;;;5.67;3.77;;;28.10;60.50;;;;;;5006877;28;20294;-83
2022/05/31 14:22:00;;;;;;;5.83;3.70;;;28.20;61.20;;;;;;5016096;28;20207;-85
2022/05/31 14:24:32;;;;;;;6.97;3.80;;;28.20;61.50;;;;;;5009541;28;20217;-82
2022/05/31 14:27:04;;;;;;;6.67;3.83;;;28.20;61.70;;;;;;5019572;28;20203;-86
2022/05/31 14:29:34;;;;;;;6.37;3.67;;;28.20;60.90;;;;;;5000431;28;20199;-87
2022/05/31 14:32:20;;;;;;;8.50;4.10;;;28.10;60.30;;;;;;5002142;28;20208;-85
2022/05/31 14:34:51;;;;;;;8.63;3.50;;;28.00;60.10;;;;;;5009705;28;20231;-85
2022/05/31 14:37:46;;;;;;;6.47;3.33;;;27.90;60.50;;;;;;5004708;28;20582;-86
2022/05/31 14:40:31;;;;;;;9.27;3.73;;;27.60;60.50;;;;;;5021882;28;20218;-85
2022/05/31 14:43:06;;;;;;;8.30;4.47;;;27.40;61.40;;;;;;5005297;28;20237;-85
2022/05/31 14:45:47;;;;;;;6.10;3.27;;;27.20;63.10;;;;;;5016860;28;20226;-85
2022/05/31 14:48:35;;;;;;;6.27;4.17;;;27.20;63.90;;;;;;4984306;28;20249;-83
2022/05/31 14:51:11;;;;;;;8.20;4.00;;;27.30;64.60;;;;;;5014884;28;20245;-83
2022/05/31 14:53:41;;;;;;;9.30;3.83;;;27.50;62.80;;;;;;5006253;28;20231;-85
2022/05/31 14:56:27;;;;;;;7.27;3.90;;;27.60;63.50;;;;;;5011422;28;20214;-85
2022/05/31 14:59:02;;;;;;;11.10;4.07;;;27.60;63.20;;;;;;4993120;28;20220;-83
2022/05/31 15:01:45;;;;;;;6.53;4.10;;;27.60;63.60;;;;;;4985467;28;20211;-85
2022/05/31 15:04:23;;;;;;;8.77;3.63;;;27.60;63.60;;;;;;5004240;28;20293;-85
2022/05/31 15:07:31;;;;;;;6.67;3.87;;;27.60;62.10;;;;;;5021608;28;20646;-84
2022/05/31 15:10:34;;;;;;;10.37;3.83;;;27.50;61.20;;;;;;4994852;28;20200;-86